createdAt,value
2023-03-20T00:01:02.490Z,64.77
2023-03-20T00:02:15.979Z,64.21
2023-03-20T00:03:29.865Z,62.50
2023-03-20T00:04:34.226Z,61.44
2023-03-20T00:05:57.250Z,59.17
2023-03-20T00:07:10.850Z,56.81
2023-03-20T00:08:24.363Z,56.32
2023-03-20T00:09:38.023Z,56.34
2023-03-20T00:10:51.783Z,57.05
2023-03-20T00:12:08.344Z,57.97
2023-03-20T00:13:21.992Z,58.88
2023-03-20T00:14:38.771Z,59.61
2023-03-20T00:15:43.556Z,59.84
2023-03-20T00:16:57.215Z,60.88
2023-03-20T00:17:50.909Z,61.26
2023-03-20T00:18:58.152Z,61.85
2023-03-20T00:19:52.434Z,62.48
2023-03-20T00:21:06.119Z,64.03
2023-03-20T00:22:20.931Z,65.18
2023-03-20T00:23:34.487Z,64.27
2023-03-20T00:24:48.203Z,62.82
2023-03-20T00:26:01.774Z,61.42
2023-03-20T00:27:08.471Z,58.79
2023-03-20T00:28:22.101Z,56.31
2023-03-20T00:29:35.787Z,55.93
2023-03-20T00:30:52.120Z,56.45
2023-03-20T00:32:08.467Z,57.01
2023-03-20T00:33:21.922Z,57.91
2023-03-20T00:34:35.549Z,58.32
2023-03-20T00:35:49.332Z,59.12
2023-03-20T00:37:02.894Z,59.73
2023-03-20T00:38:16.623Z,60.31
2023-03-20T00:39:30.297Z,60.57
2023-03-20T00:40:43.869Z,61.23
2023-03-20T00:42:00.585Z,61.65
2023-03-20T00:43:14.364Z,62.86
2023-03-20T00:44:28.128Z,65.31
2023-03-20T00:45:41.773Z,64.78
2023-03-20T00:46:35.266Z,63.47
2023-03-20T00:47:52.015Z,61.16
2023-03-20T00:48:54.465Z,59.96
2023-03-20T00:50:10.672Z,57.80
2023-03-20T00:51:24.372Z,57.30
2023-03-20T00:52:37.999Z,57.67
2023-03-20T00:53:51.492Z,58.26
2023-03-20T00:55:05.306Z,58.68
2023-03-20T00:55:59.697Z,59.41
2023-03-20T00:57:13.254Z,60.69
2023-03-20T00:58:16.001Z,60.60
2023-03-20T00:59:09.627Z,61.28
2023-03-20T01:00:11.765Z,62.11
2023-03-20T01:01:05.908Z,62.82
2023-03-20T01:02:19.601Z,64.32
2023-03-20T01:03:33.268Z,65.52
2023-03-20T01:04:35.525Z,64.55
2023-03-20T01:05:49.235Z,62.89
2023-03-20T01:07:02.807Z,61.89
2023-03-20T01:08:16.538Z,58.62
2023-03-20T01:09:30.347Z,56.70
2023-03-20T01:10:44.371Z,56.20
2023-03-20T01:11:58.048Z,56.96
2023-03-20T01:13:11.347Z,57.21
2023-03-20T01:14:25.081Z,58.18
2023-03-20T01:15:38.709Z,58.79
2023-03-20T01:16:52.471Z,59.51
2023-03-20T01:18:06.194Z,60.12
2023-03-20T01:19:19.896Z,60.72
2023-03-20T01:20:33.619Z,61.32
2023-03-20T01:21:47.450Z,61.81
2023-03-20T01:23:01.072Z,63.21
2023-03-20T01:24:14.742Z,66.21
2023-03-20T01:25:28.360Z,66.38
2023-03-20T01:26:31.843Z,64.05
2023-03-20T01:27:45.763Z,61.30
2023-03-20T01:28:54.175Z,58.45
2023-03-20T01:29:56.840Z,55.84
2023-03-20T01:31:03.892Z,55.26
2023-03-20T01:32:17.859Z,55.51
2023-03-20T01:33:31.664Z,56.02
2023-03-20T01:34:34.445Z,56.81
2023-03-20T01:35:48.333Z,57.74
2023-03-20T01:37:01.803Z,58.26
2023-03-20T01:38:15.426Z,59.05
2023-03-20T01:39:29.029Z,59.41
2023-03-20T01:40:42.713Z,60.14
2023-03-20T01:41:56.392Z,60.63
2023-03-20T01:43:10.012Z,61.12
2023-03-20T01:44:23.580Z,61.79
2023-03-20T01:45:37.406Z,63.02
2023-03-20T01:47:00.325Z,66.25
2023-03-20T01:47:59.063Z,65.68
2023-03-20T01:49:12.745Z,62.71
2023-03-20T01:50:24.835Z,61.66
2023-03-20T01:51:38.516Z,58.74
2023-03-20T01:52:52.268Z,56.20
2023-03-20T01:54:05.786Z,55.82
2023-03-20T01:55:19.331Z,56.24
2023-03-20T01:56:21.716Z,57.00
2023-03-20T01:57:35.202Z,57.81
2023-03-20T01:58:44.358Z,58.51
2023-03-20T01:59:58.045Z,59.17
2023-03-20T02:01:11.920Z,59.84
2023-03-20T02:02:25.568Z,60.47
2023-03-20T02:03:39.308Z,61.21
2023-03-20T02:04:54.887Z,61.73
2023-03-20T02:05:31.484Z,63.36
2023-03-20T02:06:33.748Z,63.97
2023-03-20T02:07:47.703Z,65.31
2023-03-20T02:09:01.697Z,64.66
2023-03-20T02:10:15.469Z,63.16
2023-03-20T02:11:29.040Z,61.47
2023-03-20T02:12:42.543Z,58.80
2023-03-20T02:13:56.076Z,56.20
2023-03-20T02:15:09.718Z,55.89
2023-03-20T02:16:38.653Z,56.34
2023-03-20T02:17:52.259Z,57.03
2023-03-20T02:19:05.927Z,57.86
2023-03-20T02:20:14.286Z,58.62
2023-03-20T02:21:34.182Z,59.22
2023-03-20T02:22:47.921Z,59.89
2023-03-20T02:24:04.394Z,60.69
2023-03-20T02:25:27.029Z,61.42
2023-03-20T02:26:20.257Z,63.37
2023-03-20T02:27:36.604Z,65.48
2023-03-20T02:28:48.789Z,66.52
2023-03-20T02:30:20.772Z,64.59
2023-03-20T02:31:32.777Z,63.16
2023-03-20T02:32:44.920Z,59.98
2023-03-20T02:33:38.204Z,57.01
2023-03-20T02:35:04.061Z,56.61
2023-03-20T02:36:29.676Z,56.46
2023-03-20T02:38:01.847Z,56.97
2023-03-20T02:39:18.810Z,57.47
2023-03-20T02:40:44.956Z,58.65
2023-03-20T02:42:17.111Z,59.28
2023-03-20T02:43:40.058Z,59.38
2023-03-20T02:45:03.631Z,60.32
2023-03-20T02:46:24.744Z,60.89
2023-03-20T02:47:41.826Z,61.59
2023-03-20T02:48:58.532Z,63.79
2023-03-20T02:50:27.092Z,66.48
2023-03-20T02:51:56.499Z,66.27
2023-03-20T02:53:17.292Z,64.37
2023-03-20T02:54:52.631Z,62.75
2023-03-20T02:56:10.980Z,59.82
2023-03-20T02:57:40.077Z,56.96
2023-03-20T02:59:01.767Z,56.69
2023-03-20T03:00:34.042Z,57.11
2023-03-20T03:01:50.867Z,57.64
2023-03-20T03:02:54.971Z,58.56
2023-03-20T03:04:11.022Z,59.82
2023-03-20T03:05:29.590Z,60.32
2023-03-20T03:06:42.845Z,61.03
2023-03-20T03:07:56.514Z,61.54
2023-03-20T03:09:10.479Z,62.99
2023-03-20T03:10:10.342Z,65.35
2023-03-20T03:11:26.836Z,65.71
2023-03-20T03:12:41.811Z,65.28
2023-03-20T03:13:59.443Z,62.81
2023-03-20T03:15:21.974Z,61.19
2023-03-20T03:16:35.684Z,58.26
2023-03-20T03:17:49.224Z,55.71
2023-03-20T03:19:02.982Z,55.64
2023-03-20T03:20:11.502Z,55.91
2023-03-20T03:21:25.190Z,56.66
2023-03-20T03:22:38.963Z,57.59
2023-03-20T03:23:52.511Z,58.35
2023-03-20T03:25:09.130Z,59.48
2023-03-20T03:26:22.749Z,59.76
2023-03-20T03:27:37.314Z,60.88
2023-03-20T03:28:50.953Z,61.25
2023-03-20T03:29:44.597Z,61.61
2023-03-20T03:31:07.176Z,63.07
2023-03-20T03:32:20.901Z,65.81
2023-03-20T03:33:38.417Z,65.50
2023-03-20T03:34:54.000Z,64.15
2023-03-20T03:36:07.712Z,63.05
2023-03-20T03:37:24.477Z,61.78
2023-03-20T03:38:38.112Z,59.53
2023-03-20T03:39:54.917Z,56.67
2023-03-20T03:41:14.153Z,56.35
2023-03-20T03:42:29.321Z,56.50
2023-03-20T03:44:09.698Z,57.10
2023-03-20T03:52:54.485Z,64.97
2023-03-20T03:54:13.697Z,65.38
2023-03-20T03:55:27.600Z,64.45
2023-03-20T03:56:21.144Z,63.08
2023-03-20T03:57:26.245Z,60.44
2023-03-20T03:58:39.923Z,58.66
2023-03-20T03:59:53.833Z,56.51
2023-03-20T04:01:07.566Z,56.09
2023-03-20T04:02:21.106Z,56.58
2023-03-20T04:03:34.824Z,57.19
2023-03-20T04:04:48.529Z,58.06
2023-03-20T04:06:01.640Z,58.81
2023-03-20T04:07:15.689Z,59.74
2023-03-20T04:08:29.429Z,60.38
2023-03-20T04:09:43.038Z,61.26
2023-03-20T04:10:56.980Z,62.79
2023-03-20T04:12:10.803Z,65.98
2023-03-20T04:13:24.038Z,65.65
2023-03-20T04:14:30.040Z,63.79
2023-03-20T04:15:43.434Z,61.86
2023-03-20T04:16:57.332Z,60.82
2023-03-20T04:18:11.061Z,58.64
2023-03-20T04:19:24.773Z,56.75
2023-03-20T04:20:38.364Z,56.54
2023-03-20T04:21:51.885Z,56.99
2023-03-20T04:22:54.271Z,57.75
2023-03-20T04:24:07.824Z,58.78
2023-03-20T04:25:21.688Z,59.36
2023-03-20T04:26:35.407Z,59.96
2023-03-20T04:27:49.115Z,60.59
2023-03-20T04:29:02.918Z,61.29
2023-03-20T04:30:16.573Z,62.49
2023-03-20T04:31:33.182Z,65.22
2023-03-20T04:32:47.042Z,65.30
2023-03-20T04:33:49.020Z,64.44
2023-03-20T04:35:02.801Z,62.43
2023-03-20T04:36:16.596Z,61.64
2023-03-20T04:37:30.377Z,59.31
2023-03-20T04:38:44.052Z,56.96
2023-03-20T04:39:57.795Z,56.66
2023-03-20T04:41:11.441Z,57.12
2023-03-20T04:42:25.166Z,57.88
2023-03-20T04:43:38.780Z,58.82
2023-03-20T04:44:52.411Z,59.52
2023-03-20T04:46:06.320Z,60.37
2023-03-20T04:47:20.380Z,61.04
2023-03-20T04:48:34.118Z,62.40
2023-03-20T04:49:40.772Z,65.08
2023-03-20T04:50:50.940Z,65.14
2023-03-20T04:52:04.830Z,64.32
2023-03-20T04:53:18.506Z,62.89
2023-03-20T04:54:32.225Z,61.77
2023-03-20T04:55:35.225Z,59.15
2023-03-20T04:56:49.373Z,56.72
2023-03-20T04:58:02.917Z,56.24
2023-03-20T04:59:13.194Z,56.53
2023-03-20T05:00:26.925Z,57.19
2023-03-20T05:01:30.468Z,57.99
2023-03-20T05:02:44.291Z,59.01
2023-03-20T05:03:37.825Z,59.69
2023-03-20T05:04:55.229Z,60.98
2023-03-20T05:06:08.842Z,61.14
2023-03-20T05:07:11.408Z,62.73
2023-03-20T05:08:25.031Z,65.24
2023-03-20T05:09:31.056Z,65.37
2023-03-20T05:10:44.731Z,63.05
2023-03-20T05:11:58.540Z,61.24
2023-03-20T05:13:12.277Z,58.98
2023-03-20T05:14:05.669Z,57.00
2023-03-20T05:15:19.260Z,56.90
2023-03-20T05:16:33.093Z,57.18
2023-03-20T05:17:46.705Z,57.49
2023-03-20T05:19:00.606Z,58.10
2023-03-20T05:20:14.256Z,58.46
2023-03-20T05:21:20.728Z,58.85
2023-03-20T05:22:34.361Z,59.47
2023-03-20T05:23:48.017Z,59.98
2023-03-20T05:24:54.943Z,60.19
2023-03-20T05:26:08.515Z,60.53
2023-03-20T05:27:21.953Z,60.54
2023-03-20T05:28:35.542Z,61.08
2023-03-20T05:29:49.084Z,61.06
2023-03-20T05:31:02.949Z,61.47
2023-03-20T05:32:15.997Z,62.32
2023-03-20T05:33:32.787Z,63.86
2023-03-20T05:34:46.326Z,63.90
2023-03-20T05:35:59.925Z,62.14
2023-03-20T05:37:04.780Z,59.65
2023-03-20T05:38:18.489Z,56.43
2023-03-20T05:39:32.103Z,55.51
2023-03-20T05:40:35.110Z,55.49
2023-03-20T05:41:48.666Z,55.97
2023-03-20T05:43:02.383Z,56.24
2023-03-20T05:44:16.154Z,56.86
2023-03-20T05:45:20.798Z,57.72
2023-03-20T05:46:34.579Z,58.02
2023-03-20T05:47:48.362Z,58.58
2023-03-20T05:48:50.558Z,58.84
2023-03-20T05:50:04.334Z,59.54
2023-03-20T05:51:11.623Z,59.65
2023-03-20T05:52:25.347Z,60.23
2023-03-20T05:53:18.708Z,60.55
2023-03-20T05:54:33.461Z,60.90
2023-03-20T05:55:47.261Z,61.00
2023-03-20T05:57:01.162Z,60.93
2023-03-20T05:58:03.888Z,61.30
2023-03-20T05:59:18.645Z,61.62
2023-03-20T06:00:32.449Z,61.80
2023-03-20T06:01:45.187Z,62.38
2023-03-20T06:02:58.744Z,64.16
2023-03-20T06:04:12.413Z,64.18
2023-03-20T06:06:57.012Z,58.78
2023-03-20T06:08:10.783Z,56.51
2023-03-20T06:09:24.521Z,56.36
2023-03-20T06:10:38.340Z,56.42
2023-03-20T06:11:52.136Z,56.64
2023-03-20T06:13:05.963Z,57.26
2023-03-20T06:14:19.796Z,57.68
2023-03-20T06:15:33.830Z,58.22
2023-03-20T06:16:48.006Z,58.03
2023-03-20T06:17:50.420Z,58.53
2023-03-20T06:19:03.055Z,59.03
2023-03-20T06:20:16.719Z,58.97
2023-03-20T06:21:34.575Z,59.28
2023-03-20T06:22:48.048Z,59.57
2023-03-20T06:24:01.734Z,59.79
2023-03-20T06:25:16.097Z,60.03
2023-03-20T06:26:19.654Z,60.17
2023-03-20T06:27:25.965Z,60.40
2023-03-20T06:28:39.617Z,60.50
2023-03-20T06:29:53.127Z,60.63
2023-03-20T06:30:55.395Z,60.91
2023-03-20T06:32:08.928Z,60.71
2023-03-20T06:33:05.386Z,60.87
2023-03-20T06:34:19.021Z,60.85
2023-03-20T06:35:32.669Z,60.77
2023-03-20T06:36:46.393Z,60.79
2023-03-20T06:37:59.953Z,61.30
2023-03-20T06:39:13.574Z,60.98
2023-03-20T06:40:15.756Z,61.04
2023-03-20T06:41:33.406Z,61.30
2023-03-20T06:42:41.095Z,61.06
2023-03-20T06:43:54.615Z,61.08
2023-03-20T06:45:08.109Z,61.03
2023-03-20T06:46:11.260Z,60.89
2023-03-20T06:47:24.758Z,60.92
2023-03-20T06:48:38.273Z,60.99
2023-03-20T06:49:34.167Z,60.62
2023-03-20T06:50:47.795Z,60.78
2023-03-20T06:52:01.413Z,60.54
2023-03-20T06:53:14.917Z,60.55
2023-03-20T06:54:28.538Z,60.59
2023-03-20T06:55:43.053Z,60.84
2023-03-20T06:56:56.547Z,60.84
2023-03-20T06:58:10.023Z,60.76
2023-03-20T06:59:23.611Z,60.64
2023-03-20T07:00:37.013Z,60.36
2023-03-20T07:01:53.672Z,60.58
2023-03-20T07:03:07.285Z,60.71
2023-03-20T07:04:20.862Z,60.38
2023-03-20T07:05:34.516Z,60.42
2023-03-20T07:06:40.572Z,60.32
2023-03-20T07:07:46.774Z,60.39
2023-03-20T07:09:00.350Z,60.23
2023-03-20T07:10:13.926Z,60.13
2023-03-20T07:11:25.995Z,60.19
2023-03-20T07:12:19.089Z,60.25
2023-03-20T07:13:32.652Z,60.42
2023-03-20T07:14:46.200Z,60.22
2023-03-20T07:16:03.654Z,59.94
2023-03-20T07:17:06.481Z,59.67
2023-03-20T07:18:19.965Z,59.36
2023-03-20T07:19:33.572Z,58.95
2023-03-20T07:20:47.588Z,59.07
2023-03-20T07:22:01.088Z,58.76
2023-03-20T07:22:56.871Z,58.21
2023-03-20T07:24:10.536Z,58.02
2023-03-20T07:25:35.414Z,58.23
2023-03-20T07:26:55.406Z,58.02
2023-03-20T07:28:09.177Z,58.15
2023-03-20T07:29:22.807Z,58.06
2023-03-20T07:30:36.343Z,57.84
2023-03-20T07:31:49.981Z,57.72
2023-03-20T07:32:52.325Z,57.78
2023-03-20T07:33:58.857Z,57.61
2023-03-20T07:35:12.434Z,57.60
2023-03-20T07:36:14.814Z,57.56
2023-03-20T07:37:21.138Z,57.48
2023-03-20T07:38:34.716Z,57.21
2023-03-20T07:39:48.287Z,57.34
2023-03-20T07:41:01.888Z,57.26
2023-03-20T07:42:03.971Z,57.38
2023-03-20T07:43:17.356Z,57.18
2023-03-20T07:44:23.309Z,57.47
2023-03-20T07:45:29.430Z,57.57
2023-03-20T07:46:43.039Z,57.53
2023-03-20T07:47:56.655Z,57.44
2023-03-20T07:49:10.184Z,57.51
2023-03-20T07:50:23.881Z,57.47
2023-03-20T07:51:24.988Z,57.38
2023-03-20T07:52:27.695Z,57.05
2023-03-20T07:53:41.281Z,56.92
2023-03-20T07:54:54.746Z,56.83
2023-03-20T07:56:08.237Z,56.71
2023-03-20T07:57:21.717Z,56.47
2023-03-20T07:58:35.210Z,56.53
2023-03-20T07:59:48.783Z,56.25
2023-03-20T08:00:54.798Z,56.25
2023-03-20T08:02:08.380Z,56.04
2023-03-20T08:03:22.102Z,56.22
2023-03-20T08:04:24.484Z,56.27
2023-03-20T08:05:38.365Z,56.10
2023-03-20T08:06:52.338Z,56.08
2023-03-20T08:07:56.478Z,56.03
2023-03-20T08:09:02.808Z,55.93
2023-03-20T08:10:04.848Z,55.86
2023-03-20T08:11:18.450Z,55.78
2023-03-20T08:12:31.966Z,55.84
2023-03-20T08:13:45.695Z,55.78
2023-03-20T08:14:47.974Z,55.97
2023-03-20T08:16:01.612Z,55.69
2023-03-20T08:17:14.450Z,55.55
2023-03-20T08:18:20.174Z,55.23
2023-03-20T08:19:32.506Z,55.31
2023-03-20T08:20:46.129Z,55.35
2023-03-20T08:21:59.575Z,55.23
2023-03-20T08:23:01.514Z,54.89
2023-03-20T08:24:14.983Z,54.62
2023-03-20T08:25:28.544Z,54.43
2023-03-20T08:26:42.030Z,54.46
2023-03-20T08:27:48.122Z,54.16
2023-03-20T08:28:53.985Z,54.18
2023-03-20T08:29:54.753Z,54.13
2023-03-20T08:31:08.293Z,53.68
2023-03-20T08:32:21.839Z,53.63
2023-03-20T08:33:35.370Z,53.55
2023-03-20T08:34:48.841Z,53.48
2023-03-20T08:36:02.540Z,53.30
2023-03-20T08:37:17.201Z,53.33
2023-03-20T08:38:30.753Z,53.27
2023-03-20T08:39:44.420Z,53.41
2023-03-20T08:40:57.985Z,53.16
2023-03-20T08:42:11.507Z,53.30
2023-03-20T08:43:10.102Z,53.01
2023-03-20T08:44:12.394Z,52.78
2023-03-20T08:45:25.902Z,52.82
2023-03-20T08:46:29.646Z,52.83
2023-03-20T08:47:43.427Z,52.85
2023-03-20T08:48:57.059Z,52.69
2023-03-20T08:50:10.681Z,52.65
2023-03-20T08:51:24.255Z,52.55
2023-03-20T08:52:38.121Z,52.52
2023-03-20T08:53:51.856Z,52.31
2023-03-20T08:55:05.369Z,52.57
2023-03-20T08:56:19.015Z,52.42
2023-03-20T08:57:32.482Z,52.27
2023-03-20T08:58:35.930Z,52.07
2023-03-20T08:59:49.472Z,51.92
2023-03-20T09:01:03.247Z,51.95
2023-03-20T09:02:16.943Z,52.10
2023-03-20T09:03:30.521Z,52.33
2023-03-20T09:04:36.691Z,52.29
2023-03-20T09:05:42.968Z,52.08
2023-03-20T09:06:56.443Z,51.96
2023-03-20T09:08:10.042Z,51.80
2023-03-20T09:09:23.571Z,51.87
2023-03-20T09:10:29.717Z,51.85
2023-03-20T09:11:43.272Z,51.82
2023-03-20T09:12:56.714Z,51.65
2023-03-20T09:13:53.468Z,51.38
2023-03-20T09:14:59.693Z,51.17
2023-03-20T09:16:13.799Z,51.27
2023-03-20T09:17:28.335Z,51.10
2023-03-20T09:18:34.567Z,51.27
2023-03-20T09:19:36.921Z,51.02
2023-03-20T09:20:39.498Z,50.86
2023-03-20T09:21:51.851Z,51.04
2023-03-20T09:22:48.275Z,50.90
2023-03-20T09:23:38.981Z,50.83
2023-03-20T09:24:52.558Z,50.78
2023-03-20T09:26:06.099Z,50.97
2023-03-20T09:27:19.707Z,51.23
2023-03-20T09:28:33.311Z,51.10
2023-03-20T09:29:46.815Z,50.88
2023-03-20T09:31:00.380Z,50.98
2023-03-20T09:32:04.039Z,51.11
2023-03-20T09:33:17.656Z,50.93
2023-03-20T09:34:31.627Z,50.81
2023-03-20T09:35:45.414Z,50.89
2023-03-20T09:36:58.939Z,50.85
2023-03-20T09:38:12.598Z,50.78
2023-03-20T09:39:26.061Z,50.78
2023-03-20T09:40:39.632Z,50.63
2023-03-20T09:41:59.064Z,50.33
2023-03-20T09:43:18.406Z,50.26
2023-03-20T09:44:32.047Z,50.21
2023-03-20T09:45:34.314Z,49.94
2023-03-20T09:46:36.217Z,49.71
2023-03-20T09:47:49.847Z,49.41
2023-03-20T09:49:03.431Z,49.72
2023-03-20T09:50:20.023Z,49.55
2023-03-20T09:51:36.810Z,49.50
2023-03-20T09:52:56.599Z,49.50
2023-03-20T09:54:10.534Z,49.51
2023-03-20T09:55:24.972Z,49.45
2023-03-20T09:56:43.621Z,49.24
2023-03-20T09:58:01.220Z,49.16
2023-03-20T09:59:14.793Z,49.20
2023-03-20T10:00:28.331Z,49.09
2023-03-20T10:01:41.963Z,48.73
2023-03-20T10:02:46.978Z,48.77
2023-03-20T10:04:00.631Z,48.64
2023-03-20T10:05:14.013Z,48.67
2023-03-20T10:06:27.530Z,48.54
2023-03-20T10:07:41.178Z,48.80
2023-03-20T10:08:54.681Z,48.77
2023-03-20T10:10:07.236Z,48.91
2023-03-20T10:11:23.614Z,48.91
2023-03-20T10:12:37.288Z,49.08
2023-03-20T10:13:50.926Z,48.84
2023-03-20T10:15:02.635Z,48.54
2023-03-20T10:16:16.335Z,48.37
2023-03-20T10:17:27.942Z,48.02
2023-03-20T10:18:41.695Z,47.80
2023-03-20T10:19:56.345Z,48.07
2023-03-20T10:21:09.950Z,48.31
2023-03-20T10:22:23.446Z,48.39
2023-03-20T10:23:31.010Z,48.38
2023-03-20T10:24:44.584Z,48.33
2023-03-20T10:26:01.082Z,48.07
2023-03-20T10:27:14.593Z,48.11
2023-03-20T10:28:28.269Z,48.03
2023-03-20T10:29:41.781Z,47.94
2023-03-20T10:30:57.797Z,47.81
2023-03-20T10:32:26.199Z,47.48
2023-03-20T10:33:38.076Z,47.68
2023-03-20T10:34:49.858Z,47.53
2023-03-20T10:36:09.489Z,47.60
2023-03-20T10:37:06.093Z,47.68
2023-03-20T10:38:19.644Z,47.53
2023-03-20T10:39:36.301Z,47.44
2023-03-20T10:40:38.897Z,47.42
2023-03-20T10:41:55.520Z,47.30
2023-03-20T10:43:11.819Z,47.19
2023-03-20T10:44:25.287Z,47.06
2023-03-20T10:45:41.379Z,47.03
2023-03-20T10:46:57.813Z,47.16
2023-03-20T10:48:04.454Z,47.04
2023-03-20T10:49:18.232Z,46.69
2023-03-20T10:50:16.624Z,46.63
2023-03-20T10:51:32.949Z,46.41
2023-03-20T10:52:49.464Z,46.00
2023-03-20T10:54:01.300Z,45.98
2023-03-20T10:55:14.869Z,46.23
2023-03-20T10:56:28.390Z,46.16
2023-03-20T10:57:41.924Z,46.22
2023-03-20T10:58:55.489Z,46.14
2023-03-20T11:00:14.685Z,46.06
2023-03-20T11:01:12.351Z,46.06
2023-03-20T11:02:14.328Z,45.93
2023-03-20T11:03:28.040Z,45.82
2023-03-20T11:04:41.493Z,46.08
2023-03-20T11:06:06.639Z,46.13
2023-03-20T11:07:22.603Z,45.92
2023-03-20T11:08:45.986Z,45.91
2023-03-20T11:09:59.455Z,46.19
2023-03-20T11:11:04.130Z,46.09
2023-03-20T11:12:17.598Z,45.86
2023-03-20T11:13:23.423Z,45.71
2023-03-20T11:14:36.926Z,45.49
2023-03-20T11:15:49.029Z,45.94
2023-03-20T11:17:06.247Z,46.01
2023-03-20T11:18:19.909Z,46.01
2023-03-20T11:19:33.551Z,45.65
2023-03-20T11:20:47.251Z,45.37
2023-03-20T11:21:54.371Z,45.66
2023-03-20T11:23:07.909Z,45.91
2023-03-20T11:24:21.523Z,45.82
2023-03-20T11:25:23.554Z,45.58
2023-03-20T11:26:43.474Z,45.64
2023-03-20T11:27:57.007Z,45.58
2023-03-20T11:29:10.529Z,45.39
2023-03-20T11:30:24.238Z,45.05
2023-03-20T11:31:38.268Z,44.74
2023-03-20T11:32:58.045Z,44.59
2023-03-20T11:34:11.759Z,44.56
2023-03-20T11:35:17.672Z,44.52
2023-03-20T11:36:32.363Z,44.47
2023-03-20T11:37:48.979Z,44.56
2023-03-20T11:39:02.607Z,44.45
2023-03-20T11:40:16.211Z,44.43
2023-03-20T11:41:29.800Z,44.24
2023-03-20T11:42:43.329Z,44.11
2023-03-20T11:43:56.837Z,44.30
2023-03-20T11:45:10.349Z,44.40
2023-03-20T11:46:23.975Z,44.16
2023-03-20T11:47:37.497Z,44.26
2023-03-20T11:48:59.875Z,44.40
2023-03-20T11:50:02.105Z,44.50
2023-03-20T11:50:57.470Z,44.38
2023-03-20T11:52:10.998Z,44.28
2023-03-20T11:53:24.508Z,44.29
2023-03-20T11:54:38.014Z,44.43
2023-03-20T11:55:54.244Z,44.58
2023-03-20T11:57:07.753Z,44.89
2023-03-20T11:58:11.333Z,44.98
2023-03-20T11:59:22.915Z,44.52
2023-03-20T12:00:36.743Z,44.52
2023-03-20T12:01:50.490Z,44.51
2023-03-20T12:03:04.145Z,44.50
2023-03-20T12:04:19.070Z,44.52
2023-03-20T12:05:32.776Z,44.74
2023-03-20T12:06:46.365Z,44.71
2023-03-20T12:08:09.236Z,44.43
2023-03-20T12:09:22.766Z,44.47
2023-03-20T12:10:34.317Z,44.57
2023-03-20T12:11:38.051Z,44.76
2023-03-20T12:12:41.274Z,44.74
2023-03-20T12:14:01.067Z,44.60
2023-03-20T12:15:20.425Z,44.82
2023-03-20T12:16:36.588Z,44.93
2023-03-20T12:17:56.235Z,45.31
2023-03-20T12:19:12.410Z,45.42
2023-03-20T12:20:26.035Z,45.22
2023-03-20T12:21:51.574Z,44.82
2023-03-20T12:23:05.195Z,44.58
2023-03-20T12:24:16.732Z,44.67
2023-03-20T12:25:30.253Z,44.92
2023-03-20T12:26:36.357Z,44.99
2023-03-20T12:27:55.655Z,45.01
2023-03-20T12:29:18.033Z,45.41
2023-03-20T12:30:40.538Z,45.84
2023-03-20T12:32:03.219Z,45.93
2023-03-20T12:33:34.912Z,45.65
2023-03-20T12:34:51.272Z,45.45
2023-03-20T12:36:07.510Z,45.04
2023-03-20T12:37:24.070Z,44.89
2023-03-20T12:38:34.738Z,45.13
2023-03-20T12:39:51.708Z,44.66
2023-03-20T12:41:05.395Z,44.63
2023-03-20T12:42:18.937Z,44.60
2023-03-20T12:43:35.340Z,44.37
2023-03-20T12:45:02.085Z,44.70
2023-03-20T12:46:44.604Z,44.97
2023-03-20T12:48:04.367Z,44.82
2023-03-20T12:49:17.977Z,44.78
2023-03-20T12:50:34.368Z,44.63
2023-03-20T12:51:48.067Z,44.85
2023-03-20T12:53:02.642Z,44.89
2023-03-20T12:54:19.272Z,44.71
2023-03-20T12:55:45.113Z,44.38
2023-03-20T12:57:07.436Z,44.33
2023-03-20T12:58:00.702Z,44.60
2023-03-20T12:59:14.336Z,44.65
2023-03-20T13:00:26.014Z,44.27
2023-03-20T13:01:28.327Z,43.89
2023-03-20T13:02:44.996Z,43.60
2023-03-20T13:04:07.308Z,43.48
2023-03-20T13:05:26.662Z,43.71
2023-03-20T13:06:43.259Z,44.04
2023-03-20T13:07:59.731Z,44.19
2023-03-20T13:09:13.374Z,44.60
2023-03-20T13:10:37.690Z,44.71
2023-03-20T13:11:58.592Z,44.29
2023-03-20T13:13:20.770Z,44.06
2023-03-20T13:14:20.908Z,44.10
2023-03-20T13:15:46.262Z,43.76
2023-03-20T13:17:06.825Z,43.82
2023-03-20T13:18:24.088Z,43.66
2023-03-20T13:21:57.965Z,43.24
2023-03-20T13:23:17.681Z,43.68
2023-03-20T13:24:34.660Z,43.75
2023-03-20T13:25:46.757Z,43.62
2023-03-20T13:27:13.482Z,43.80
2023-03-20T13:32:15.502Z,45.57
2023-03-20T13:33:31.799Z,45.59
2023-03-20T13:34:48.476Z,45.79
2023-03-20T13:35:47.637Z,46.04
2023-03-20T13:36:43.803Z,46.10
2023-03-20T13:38:06.365Z,45.75
2023-03-20T13:39:20.121Z,45.59
2023-03-20T13:40:39.904Z,45.73
2023-03-20T13:41:44.227Z,45.84
2023-03-20T13:42:53.496Z,45.97
2023-03-20T13:43:35.448Z,45.96
2023-03-20T13:44:49.268Z,46.11
2023-03-20T13:46:11.782Z,46.23
2023-03-20T13:47:25.495Z,46.49
2023-03-20T13:48:39.156Z,46.74
2023-03-20T13:49:55.840Z,46.36
2023-03-20T13:51:15.436Z,46.32
2023-03-20T13:52:47.394Z,46.52
2023-03-20T13:54:06.647Z,46.68
2023-03-20T13:55:20.438Z,46.63
2023-03-20T13:56:36.433Z,46.41
2023-03-20T13:57:49.955Z,46.45
2023-03-20T13:59:03.563Z,46.65
2023-03-20T14:00:17.176Z,46.84
2023-03-20T14:01:30.839Z,46.89
2023-03-20T14:02:50.650Z,46.52
2023-03-20T14:04:10.285Z,46.49
2023-03-20T14:05:12.770Z,46.55
2023-03-20T14:06:26.803Z,46.54
2023-03-20T14:07:25.775Z,46.53
2023-03-20T14:08:19.496Z,46.82
2023-03-20T14:09:36.336Z,46.88
2023-03-20T14:11:01.938Z,46.59
2023-03-20T14:12:18.682Z,46.68
2023-03-20T14:13:35.782Z,46.79
2023-03-20T14:14:50.531Z,46.89
2023-03-20T14:16:08.094Z,47.00
2023-03-20T14:17:22.205Z,46.90
2023-03-20T14:18:35.786Z,46.73
2023-03-20T14:19:49.567Z,46.77
2023-03-20T14:21:15.085Z,46.86
2023-03-20T14:22:28.647Z,47.03
2023-03-20T14:23:42.787Z,47.21
2023-03-20T14:24:56.533Z,47.23
2023-03-20T14:26:10.150Z,47.54
2023-03-20T14:27:36.736Z,47.83
2023-03-20T14:28:55.128Z,48.11
2023-03-20T14:30:12.428Z,48.35
2023-03-20T14:31:27.572Z,48.33
2023-03-20T14:32:55.153Z,48.42
2023-03-20T14:34:08.958Z,48.54
2023-03-20T14:35:25.581Z,48.64
2023-03-20T14:36:57.779Z,48.45
2023-03-20T14:38:11.642Z,48.34
2023-03-20T14:39:10.533Z,48.29
2023-03-20T14:40:13.226Z,48.21
2023-03-20T14:41:26.963Z,48.63
2023-03-20T14:42:55.790Z,48.96
2023-03-20T14:44:07.630Z,49.10
2023-03-20T14:45:29.983Z,49.41
2023-03-20T14:46:43.717Z,49.19
2023-03-20T14:48:03.641Z,49.20
2023-03-20T14:49:17.285Z,49.44
2023-03-20T14:50:31.168Z,49.70
2023-03-20T14:51:43.319Z,49.70
2023-03-20T14:52:36.530Z,49.78
2023-03-20T14:53:50.352Z,49.85
2023-03-20T14:55:03.956Z,50.17
2023-03-20T14:56:29.665Z,50.21
2023-03-20T14:57:59.123Z,50.10
2023-03-20T14:59:11.431Z,50.23
2023-03-20T15:00:24.946Z,50.34
2023-03-20T15:01:38.537Z,50.38
2023-03-20T15:03:01.370Z,50.40
2023-03-20T15:04:14.876Z,50.45
2023-03-20T15:05:28.420Z,50.47
2023-03-20T15:06:42.082Z,50.53
2023-03-20T15:07:54.609Z,50.67
2023-03-20T15:09:11.020Z,50.88
2023-03-20T15:10:24.693Z,50.96
2023-03-20T15:11:38.319Z,51.00
2023-03-20T15:12:55.225Z,51.03
2023-03-20T15:14:08.849Z,51.06
2023-03-20T15:15:25.348Z,51.27
2023-03-20T15:16:39.405Z,51.62
2023-03-20T15:17:53.711Z,51.93
2023-03-20T15:20:26.594Z,52.10
2023-03-20T15:21:40.238Z,51.88
2023-03-20T15:22:55.670Z,51.76
2023-03-20T15:24:11.388Z,51.86
2023-03-20T15:25:24.973Z,51.98
2023-03-20T15:26:29.110Z,51.75
2023-03-20T15:27:42.746Z,51.39
2023-03-20T15:28:56.363Z,51.39
2023-03-20T15:29:53.247Z,51.72
2023-03-20T15:31:07.757Z,51.75
2023-03-20T15:32:21.291Z,51.51
2023-03-20T15:33:35.727Z,51.65
2023-03-20T15:34:49.445Z,51.51
2023-03-20T15:36:05.648Z,51.29
2023-03-20T15:37:20.309Z,51.29
2023-03-20T15:38:34.074Z,51.41
2023-03-20T15:39:47.762Z,51.70
2023-03-20T15:41:04.151Z,51.78
2023-03-20T15:42:17.999Z,51.87
2023-03-20T15:43:34.279Z,51.87
2023-03-20T15:44:53.637Z,51.98
2023-03-20T15:46:18.115Z,52.01
2023-03-20T15:47:33.001Z,52.39
2023-03-20T15:48:40.081Z,52.37
2023-03-20T15:49:53.953Z,52.23
2023-03-20T15:51:08.258Z,52.17
2023-03-20T15:52:22.179Z,52.19
2023-03-20T15:53:30.135Z,52.27
2023-03-20T15:54:43.556Z,52.40
2023-03-20T15:56:04.459Z,52.64